createdAt,value
2018-04-11T00:01:49.896Z,6.60
2018-04-11T00:04:17.943Z,6.60
2018-04-11T00:06:46.274Z,6.60
2018-04-11T00:09:13.804Z,6.60
2018-04-11T00:11:42.100Z,6.60
2018-04-11T00:14:10.436Z,6.60
2018-04-11T00:16:37.962Z,6.60
2018-04-11T00:19:06.278Z,6.60
2018-04-11T00:21:33.854Z,6.50
2018-04-11T00:24:01.459Z,6.60
2018-04-11T00:26:28.986Z,6.50
2018-04-11T00:28:56.563Z,6.60
2018-04-11T00:31:24.092Z,6.60
2018-04-11T00:33:52.396Z,6.60
2018-04-11T00:36:19.969Z,6.50
2018-04-11T00:38:48.956Z,6.50
2018-04-11T00:41:18.177Z,6.50
2018-04-11T00:43:46.525Z,6.50
2018-04-11T00:46:14.049Z,6.50
2018-04-11T00:48:41.580Z,6.60
2018-04-11T00:51:09.148Z,6.70
2018-04-11T00:53:36.669Z,6.60
2018-04-11T00:56:04.199Z,6.60
2018-04-11T00:58:32.749Z,6.60
2018-04-11T01:01:00.324Z,6.60
2018-04-11T01:03:27.892Z,6.60
2018-04-11T01:05:55.463Z,6.50
2018-04-11T01:08:22.996Z,6.50
2018-04-11T01:10:51.310Z,6.50
2018-04-11T01:13:18.889Z,6.40
2018-04-11T01:15:46.416Z,6.50
2018-04-11T01:18:14.712Z,6.40
2018-04-11T01:20:43.137Z,6.40
2018-04-11T01:23:10.681Z,6.40
2018-04-11T01:25:38.205Z,6.40
2018-04-11T01:28:05.781Z,6.30
2018-04-11T01:30:33.319Z,6.30
2018-04-11T01:33:00.857Z,6.30
2018-04-11T01:35:29.296Z,6.30
2018-04-11T01:37:56.820Z,6.20
2018-04-11T01:40:25.105Z,6.20
2018-04-11T01:42:53.537Z,6.20
2018-04-11T01:45:21.065Z,6.20
2018-04-11T01:47:49.370Z,6.20
2018-04-11T01:50:18.628Z,6.20
2018-04-11T01:52:46.148Z,6.10
2018-04-11T01:55:13.681Z,6.20
2018-04-11T01:57:41.253Z,6.20
2018-04-11T02:00:08.840Z,6.10
2018-04-11T02:02:36.374Z,6.10
2018-04-11T02:05:03.949Z,6.10
2018-04-11T02:07:31.496Z,6.10
2018-04-11T02:09:59.024Z,6.10
2018-04-11T02:12:26.600Z,6.10
2018-04-11T02:14:54.906Z,6.10
2018-04-11T02:17:23.225Z,6.10
2018-04-11T02:19:50.901Z,6.00
2018-04-11T02:22:19.458Z,6.00
2018-04-11T02:24:48.692Z,6.00
2018-04-11T02:27:16.269Z,6.00
2018-04-11T02:29:43.846Z,6.00
2018-04-11T02:32:11.372Z,6.00
2018-04-11T02:34:39.723Z,5.90
2018-04-11T02:37:07.272Z,5.90
2018-04-11T02:39:34.826Z,5.90
2018-04-11T02:42:02.406Z,6.00
2018-04-11T02:44:36.900Z,5.90
2018-04-11T02:47:04.534Z,6.00
2018-04-11T02:49:32.061Z,5.90
2018-04-11T02:52:00.357Z,5.90
2018-04-11T02:54:28.697Z,5.90
2018-04-11T02:56:56.244Z,5.90
2018-04-11T02:59:23.785Z,6.00
2018-04-11T03:01:51.378Z,6.00
2018-04-11T03:04:18.913Z,6.00
2018-04-11T03:06:47.217Z,6.00
2018-04-11T03:09:14.793Z,6.00
2018-04-11T03:11:42.328Z,6.00
2018-04-11T03:14:09.860Z,6.00
2018-04-11T03:16:37.529Z,6.00
2018-04-11T03:19:05.058Z,6.10
2018-04-11T03:21:32.581Z,6.10
2018-04-11T03:24:00.244Z,6.10
2018-04-11T03:26:27.779Z,6.00
2018-04-11T03:28:56.076Z,5.90
2018-04-11T03:31:23.704Z,5.90
2018-04-11T03:33:51.229Z,5.90
2018-04-11T03:36:19.011Z,5.90
2018-04-11T03:38:46.590Z,5.90
2018-04-11T03:41:14.169Z,5.90
2018-04-11T03:43:41.699Z,5.90
2018-04-11T03:46:10.047Z,6.00
2018-04-11T03:48:37.579Z,6.00
2018-04-11T03:51:05.116Z,6.00
2018-04-11T03:53:32.784Z,6.00
2018-04-11T03:56:01.107Z,6.00
2018-04-11T03:58:28.648Z,6.00
2018-04-11T04:00:56.226Z,6.00
2018-04-11T04:03:24.530Z,6.00
2018-04-11T04:05:52.133Z,6.00
2018-04-11T04:08:19.802Z,6.10
2018-04-11T04:10:47.328Z,6.00
2018-04-11T04:13:14.866Z,6.00
2018-04-11T04:15:54.416Z,6.00
2018-04-11T04:18:33.736Z,6.00
2018-04-11T04:21:01.318Z,5.90
2018-04-11T04:23:28.845Z,5.90
2018-04-11T04:25:57.149Z,5.90
2018-04-11T04:28:24.762Z,5.90
2018-04-11T04:30:52.337Z,5.90
2018-04-11T04:33:19.864Z,5.90
2018-04-11T04:35:48.197Z,5.90
2018-04-11T04:38:15.730Z,5.90
2018-04-11T04:40:43.257Z,5.90
2018-04-11T04:43:10.820Z,5.90
2018-04-11T04:45:38.361Z,5.90
2018-04-11T04:48:05.933Z,5.90
2018-04-11T04:50:33.716Z,5.90
2018-04-11T04:53:01.240Z,5.80
2018-04-11T04:55:29.537Z,5.80
2018-04-11T04:57:57.965Z,5.80
2018-04-11T05:00:25.501Z,5.80
2018-04-11T05:02:53.797Z,5.80
2018-04-11T05:05:21.374Z,5.80
2018-04-11T05:07:49.432Z,5.80
2018-04-11T05:10:17.931Z,5.80
2018-04-11T05:12:46.360Z,5.80
2018-04-11T05:15:13.897Z,5.80
2018-04-11T05:17:41.504Z,5.90
2018-04-11T05:20:09.084Z,5.90
2018-04-11T05:22:36.644Z,5.90
2018-04-11T05:25:04.177Z,5.90
2018-04-11T05:27:32.608Z,5.90
2018-04-11T05:30:00.137Z,5.90
2018-04-11T05:32:28.444Z,5.90
2018-04-11T05:34:56.224Z,5.90
2018-04-11T05:37:23.764Z,5.90
2018-04-11T05:39:51.293Z,6.00
2018-04-11T05:42:19.737Z,6.00
2018-04-11T05:44:48.029Z,6.10
2018-04-11T05:47:16.325Z,6.10
2018-04-11T05:49:43.937Z,6.10
2018-04-11T05:52:11.471Z,6.10
2018-04-11T05:54:39.009Z,6.20
2018-04-11T05:57:07.356Z,6.20
2018-04-11T05:59:34.891Z,6.20
2018-04-11T06:02:03.204Z,6.20
2018-04-11T06:04:30.777Z,6.20
2018-04-11T06:06:58.370Z,6.20
2018-04-11T06:09:25.929Z,6.20
2018-04-11T06:11:53.505Z,6.20
2018-04-11T06:14:21.045Z,6.30
2018-04-11T06:16:50.284Z,6.40
2018-04-11T06:19:17.861Z,6.40
2018-04-11T06:21:45.400Z,6.40
2018-04-11T06:24:12.935Z,6.40
2018-04-11T06:26:40.513Z,6.30
2018-04-11T06:29:08.051Z,6.40
2018-04-11T06:31:35.577Z,6.30
2018-04-11T06:34:03.913Z,6.30
2018-04-11T06:36:31.444Z,6.30
2018-04-11T06:38:59.052Z,6.30
2018-04-11T06:41:26.710Z,6.30
2018-04-11T06:43:54.243Z,6.40
2018-04-11T06:46:22.537Z,6.40
2018-04-11T06:48:50.964Z,6.40
2018-04-11T06:51:18.518Z,6.40
2018-04-11T06:53:46.084Z,6.40
2018-04-11T06:56:13.670Z,6.40
2018-04-11T06:58:41.202Z,6.40
2018-04-11T07:01:09.522Z,6.40
2018-04-11T07:03:37.100Z,6.40
2018-04-11T07:06:04.662Z,6.40
2018-04-11T07:08:32.188Z,6.50
2018-04-11T07:10:59.757Z,6.60
2018-04-11T07:13:27.284Z,6.50
2018-04-11T07:15:54.829Z,6.60
2018-04-11T07:18:23.169Z,6.60
2018-04-11T07:20:50.709Z,6.60
2018-04-11T07:23:18.274Z,6.70
2018-04-11T07:25:45.904Z,6.70
2018-04-11T07:28:13.409Z,6.80
2018-04-11T07:30:40.941Z,6.90
2018-04-11T07:33:08.511Z,7.00
2018-04-11T07:35:36.052Z,7.00
2018-04-11T07:38:03.597Z,7.00
2018-04-11T07:40:31.185Z,6.90
2018-04-11T07:42:58.718Z,6.90
2018-04-11T07:45:27.052Z,7.10
2018-04-11T07:47:54.628Z,7.00
2018-04-11T07:50:22.181Z,7.20
2018-04-11T07:52:50.169Z,7.20
2018-04-11T07:55:17.753Z,7.20
2018-04-11T07:57:45.305Z,7.20
2018-04-11T08:00:12.836Z,7.10
2018-04-11T08:02:40.413Z,7.10
2018-04-11T08:05:08.706Z,7.20
2018-04-11T08:07:37.007Z,7.20
2018-04-11T08:10:04.663Z,7.20
2018-04-11T08:12:32.184Z,7.30
2018-04-11T08:14:59.717Z,7.40
2018-04-11T08:17:28.069Z,7.40
2018-04-11T08:19:55.594Z,7.40
2018-04-11T08:22:23.125Z,7.50
2018-04-11T08:24:50.717Z,7.50
2018-04-11T08:27:19.027Z,7.50
2018-04-11T08:29:46.586Z,7.50
2018-04-11T08:32:14.933Z,7.70
2018-04-11T08:34:42.488Z,7.70
2018-04-11T08:37:10.030Z,7.80
2018-04-11T08:39:37.631Z,7.80
2018-04-11T08:42:05.156Z,7.90
2018-04-11T08:44:33.459Z,8.10
2018-04-11T08:47:01.038Z,8.10
2018-04-11T08:49:28.572Z,8.20
2018-04-11T08:51:56.869Z,8.20
2018-04-11T08:54:25.224Z,8.30
2018-04-11T08:56:52.805Z,8.30
2018-04-11T08:59:20.454Z,8.30
2018-04-11T09:01:48.041Z,8.50
2018-04-11T09:04:15.601Z,8.60
2018-04-11T09:06:43.141Z,8.60
2018-04-11T09:09:10.737Z,8.70
2018-04-11T09:11:38.266Z,8.80
2018-04-11T09:14:06.573Z,9.20
2018-04-11T09:16:34.150Z,9.20
2018-04-11T09:19:01.676Z,9.10
2018-04-11T09:21:29.240Z,9.00
2018-04-11T09:23:56.815Z,9.00
2018-04-11T09:26:24.337Z,9.10
2018-04-11T09:28:51.861Z,9.20
2018-04-11T09:31:19.433Z,9.20
2018-04-11T09:33:46.973Z,9.10
2018-04-11T09:36:14.501Z,9.20
2018-04-11T09:38:42.073Z,9.10
2018-04-11T09:41:09.613Z,9.20
2018-04-11T09:43:37.144Z,9.20
2018-04-11T09:46:04.729Z,9.20
2018-04-11T09:48:32.257Z,9.20
2018-04-11T09:50:59.792Z,9.30
2018-04-11T09:53:27.376Z,9.40
2018-04-11T09:55:55.680Z,9.40
2018-04-11T09:58:23.221Z,9.40
2018-04-11T10:00:53.675Z,9.30
2018-04-11T10:03:22.708Z,9.10
2018-04-11T10:05:51.490Z,9.20
2018-04-11T10:08:19.076Z,9.20
2018-04-11T10:10:47.444Z,9.40
2018-04-11T10:13:15.733Z,9.60
2018-04-11T10:15:43.305Z,9.60
2018-04-11T10:18:10.841Z,9.40
2018-04-11T10:20:38.376Z,9.30
2018-04-11T10:23:06.055Z,9.40
2018-04-11T10:25:33.607Z,9.50
2018-04-11T10:28:01.145Z,9.50
2018-04-11T10:30:29.514Z,9.40
2018-04-11T10:32:57.055Z,9.30
2018-04-11T10:35:24.594Z,9.40
2018-04-11T10:37:52.197Z,9.40
2018-04-11T10:40:19.736Z,9.60
2018-04-11T10:42:47.279Z,9.60
2018-04-11T10:45:14.856Z,9.80
2018-04-11T10:47:43.163Z,10.30
2018-04-11T10:50:10.711Z,10.30
2018-04-11T10:52:38.331Z,10.60
2018-04-11T10:55:05.861Z,10.90
2018-04-11T10:57:34.229Z,10.30
2018-04-11T11:00:01.865Z,10.30
2018-04-11T11:02:29.422Z,10.00
2018-04-11T11:04:56.973Z,10.20
2018-04-11T11:07:25.510Z,10.30
2018-04-11T11:09:53.061Z,10.30
2018-04-11T11:12:21.046Z,10.20
2018-04-11T11:14:48.629Z,10.20
2018-04-11T11:17:16.170Z,10.40
2018-04-11T11:19:55.357Z,10.50
2018-04-11T11:22:22.898Z,10.60
2018-04-11T11:24:51.115Z,10.60
2018-04-11T11:27:18.688Z,10.20
2018-04-11T11:29:46.236Z,9.90
2018-04-11T11:32:13.765Z,9.70
2018-04-11T11:34:41.409Z,9.60
2018-04-11T11:37:08.944Z,9.60
2018-04-11T11:39:36.477Z,9.70
2018-04-11T11:42:04.831Z,9.50
2018-04-11T11:44:32.403Z,9.40
2018-04-11T11:46:59.944Z,9.70
2018-04-11T11:49:27.629Z,9.70
2018-04-11T11:51:55.160Z,9.50
2018-04-11T11:54:23.474Z,9.90
2018-04-11T11:56:52.118Z,9.90
2018-04-11T11:59:19.661Z,9.90
2018-04-11T12:01:47.198Z,9.90
2018-04-11T12:04:15.533Z,9.20
2018-04-11T12:06:43.068Z,9.20
2018-04-11T12:09:10.656Z,9.10
2018-04-11T12:11:38.229Z,9.30
2018-04-11T12:14:05.762Z,9.40
2018-04-11T12:16:34.101Z,9.40
2018-04-11T12:19:01.724Z,9.40
2018-04-11T12:21:30.038Z,9.10
2018-04-11T12:23:57.578Z,9.10
2018-04-11T12:26:25.164Z,9.00
2018-04-11T12:28:53.473Z,8.70
2018-04-11T12:31:22.249Z,8.70
2018-04-11T12:33:51.707Z,8.90
2018-04-11T12:36:19.245Z,8.90
2018-04-11T12:38:47.564Z,8.80
2018-04-11T12:41:15.429Z,8.70
2018-04-11T12:43:42.973Z,8.50
2018-04-11T12:46:11.276Z,8.40
2018-04-11T12:48:38.904Z,8.40
2018-04-11T12:51:06.430Z,8.40
2018-04-11T12:53:33.986Z,8.60
2018-04-11T12:56:01.589Z,8.60
2018-04-11T12:58:29.140Z,8.70
2018-04-11T13:00:56.705Z,8.70
2018-04-11T13:03:24.284Z,8.70
2018-04-11T13:05:51.837Z,8.40
2018-04-11T13:08:19.448Z,8.50
2018-04-11T13:10:47.339Z,8.30
2018-04-11T13:13:14.890Z,8.30
2018-04-11T13:15:42.434Z,8.10
2018-04-11T13:18:10.030Z,8.10
2018-04-11T13:20:37.573Z,8.10
2018-04-11T13:23:05.860Z,8.10
2018-04-11T13:25:34.272Z,8.00
2018-04-11T13:28:01.810Z,8.00
2018-04-11T13:30:30.104Z,8.00
2018-04-11T13:32:58.441Z,8.00
2018-04-11T13:35:25.978Z,8.00
2018-04-11T13:37:53.513Z,8.00
2018-04-11T13:40:21.877Z,7.90
2018-04-11T13:42:49.444Z,7.80
2018-04-11T13:45:16.981Z,7.80
2018-04-11T13:47:44.551Z,7.60
2018-04-11T13:50:12.844Z,7.80
2018-04-11T13:52:40.392Z,7.80
2018-04-11T13:55:08.733Z,7.90
2018-04-11T13:57:36.277Z,7.90
2018-04-11T14:00:03.824Z,7.90
2018-04-11T14:02:32.312Z,7.80
2018-04-11T14:04:59.821Z,7.80
2018-04-11T14:07:27.381Z,7.90
2018-04-11T14:09:54.977Z,8.00
2018-04-11T14:12:22.513Z,7.90
2018-04-11T14:14:50.828Z,7.80
2018-04-11T14:17:18.453Z,7.80
2018-04-11T14:19:45.989Z,7.90
2018-04-11T14:22:13.524Z,8.00
2018-04-11T14:24:41.112Z,8.00
2018-04-11T14:27:08.715Z,8.00
2018-04-11T14:29:36.256Z,8.10
2018-04-11T14:32:03.833Z,8.10
2018-04-11T14:34:31.418Z,8.00
2018-04-11T14:36:58.989Z,8.00
2018-04-11T14:39:26.757Z,8.00
2018-04-11T14:41:54.293Z,7.90
2018-04-11T14:44:22.084Z,7.90
2018-04-11T14:46:49.673Z,7.90
2018-04-11T14:49:17.197Z,7.90
2018-04-11T14:51:45.490Z,8.00
2018-04-11T14:54:13.853Z,8.10
2018-04-11T14:56:41.421Z,8.00
2018-04-11T14:59:08.954Z,8.00
2018-04-11T15:01:36.571Z,8.00
2018-04-11T15:04:04.090Z,8.00
2018-04-11T15:06:31.629Z,8.00
2018-04-11T15:09:00.061Z,8.10
2018-04-11T15:11:27.606Z,8.10
2018-04-11T15:13:55.141Z,8.00
2018-04-11T15:16:22.721Z,8.10
2018-04-11T15:18:50.256Z,8.10
2018-04-11T15:21:17.780Z,8.10
2018-04-11T15:23:46.124Z,8.00
2018-04-11T15:26:13.666Z,8.00
2018-04-11T15:28:41.231Z,7.90
2018-04-11T15:31:08.796Z,8.00
2018-04-11T15:33:36.386Z,8.00
2018-04-11T15:36:03.936Z,8.00
2018-04-11T15:38:31.533Z,8.00
2018-04-11T15:40:59.072Z,7.90
2018-04-11T15:43:27.413Z,8.00
2018-04-11T15:45:55.010Z,7.90
2018-04-11T15:48:22.550Z,7.90
2018-04-11T15:50:50.089Z,8.00
2018-04-11T15:53:17.657Z,8.00
2018-04-11T15:55:45.187Z,8.00
2018-04-11T15:58:12.894Z,8.00
2018-04-11T16:00:41.414Z,7.80
2018-04-11T16:03:08.944Z,7.80
2018-04-11T16:05:37.247Z,7.90
2018-04-11T16:08:04.824Z,7.90
2018-04-11T16:10:32.383Z,7.90
2018-04-11T16:12:59.984Z,7.90
2018-04-11T16:15:27.581Z,7.80
2018-04-11T16:17:55.196Z,7.80
2018-04-11T16:20:23.626Z,7.80
2018-04-11T16:22:51.213Z,7.80
2018-04-11T16:25:18.742Z,7.70
2018-04-11T16:27:46.285Z,7.60
2018-04-11T16:30:13.929Z,7.60
2018-04-11T16:32:41.473Z,7.50
2018-04-11T16:35:09.006Z,7.60
2018-04-11T16:37:37.351Z,7.40
2018-04-11T16:40:04.881Z,7.40
2018-04-11T16:42:33.189Z,7.40
2018-04-11T16:45:00.765Z,7.50
2018-04-11T16:47:28.289Z,7.50
2018-04-11T16:49:56.593Z,7.60
2018-04-11T16:52:24.939Z,7.50
2018-04-11T16:54:53.484Z,7.50
2018-04-11T16:57:22.728Z,7.50
2018-04-11T16:59:50.305Z,7.50
2018-04-11T17:02:17.848Z,7.50
2018-04-11T17:04:45.385Z,7.40
2018-04-11T17:07:13.845Z,7.30
2018-04-11T17:09:41.415Z,7.30
2018-04-11T17:12:08.953Z,7.30
2018-04-11T17:14:37.289Z,7.30
2018-04-11T17:17:04.958Z,7.30
2018-04-11T17:19:32.626Z,7.20
2018-04-11T17:22:12.165Z,7.20
2018-04-11T17:24:51.717Z,7.20
2018-04-11T17:27:31.277Z,7.20
2018-04-11T17:30:10.795Z,7.10
2018-04-11T17:32:39.145Z,7.00
2018-04-11T17:35:06.676Z,7.00
2018-04-11T17:37:34.226Z,7.00
2018-04-11T17:40:02.568Z,7.10
2018-04-11T17:42:30.145Z,7.10
2018-04-11T17:44:57.688Z,7.20
2018-04-11T17:47:25.293Z,7.10
2018-04-11T17:49:53.754Z,7.00
2018-04-11T17:52:21.298Z,7.00
2018-04-11T17:54:48.904Z,6.90
2018-04-11T17:57:16.445Z,6.90
2018-04-11T17:59:44.059Z,6.90
2018-04-11T18:02:11.633Z,6.90
2018-04-11T18:04:39.165Z,6.80
2018-04-11T18:07:06.728Z,6.80
2018-04-11T18:09:34.424Z,6.90
2018-04-11T18:12:01.958Z,7.00
2018-04-11T18:14:30.264Z,7.00
2018-04-11T18:16:57.843Z,7.00
2018-04-11T18:19:25.393Z,7.00
2018-04-11T18:21:54.613Z,7.00
2018-04-11T18:24:22.954Z,6.90
2018-04-11T18:26:50.486Z,6.90
2018-04-11T18:29:18.037Z,6.80
2018-04-11T18:31:46.387Z,6.70
2018-04-11T18:34:13.935Z,6.60
2018-04-11T18:36:41.478Z,6.60
2018-04-11T18:39:09.062Z,6.60
2018-04-11T18:41:36.620Z,6.60
2018-04-11T18:44:04.184Z,6.60
2018-04-11T18:46:32.525Z,6.60
2018-04-11T18:49:00.056Z,6.60
2018-04-11T18:51:27.595Z,6.60
2018-04-11T18:53:56.062Z,6.60
2018-04-11T18:56:23.628Z,6.60
2018-04-11T18:58:51.166Z,6.70
2018-04-11T19:01:18.745Z,6.70
2018-04-11T19:03:46.285Z,6.60
2018-04-11T19:06:14.581Z,6.60
2018-04-11T19:08:42.922Z,6.50
2018-04-11T19:11:10.565Z,6.50
2018-04-11T19:13:38.153Z,6.50
2018-04-11T19:16:05.805Z,6.50
2018-04-11T19:18:33.394Z,6.50
2018-04-11T19:21:00.916Z,6.50
2018-04-11T19:23:29.469Z,6.50
2018-04-11T19:25:57.033Z,6.50
2018-04-11T19:28:24.572Z,6.50
2018-04-11T19:30:52.247Z,6.50
2018-04-11T19:33:19.788Z,6.60
2018-04-11T19:35:47.321Z,6.60
2018-04-11T19:38:14.982Z,6.60
2018-04-11T19:40:42.524Z,6.60
2018-04-11T19:43:10.057Z,6.60
2018-04-11T19:45:37.642Z,6.60
2018-04-11T19:48:05.212Z,6.60
2018-04-11T19:50:32.748Z,6.60
2018-04-11T19:53:00.333Z,6.60
2018-04-11T19:55:27.893Z,6.60
2018-04-11T19:57:56.689Z,6.50
2018-04-11T20:00:24.364Z,6.50
2018-04-11T20:02:52.051Z,6.50
2018-04-11T20:05:19.601Z,6.50
2018-04-11T20:07:47.178Z,6.40
2018-04-11T20:10:14.710Z,6.40
2018-04-11T20:12:43.033Z,6.40
2018-04-11T20:15:10.642Z,6.40
2018-04-11T20:17:38.208Z,6.50
2018-04-11T20:20:05.781Z,6.40
2018-04-11T20:22:33.493Z,6.40
2018-04-11T20:25:01.032Z,6.30
2018-04-11T20:27:28.566Z,6.30
2018-04-11T20:29:56.155Z,6.30
2018-04-11T20:32:23.700Z,6.30
2018-04-11T20:34:51.227Z,6.30
2018-04-11T20:37:18.912Z,6.30
2018-04-11T20:39:46.489Z,6.30
2018-04-11T20:42:14.029Z,6.30
2018-04-11T20:44:41.766Z,6.30
2018-04-11T20:47:09.328Z,6.30
2018-04-11T20:49:37.017Z,6.30
2018-04-11T20:52:04.810Z,6.30
2018-04-11T20:54:32.361Z,6.30
2018-04-11T20:56:59.941Z,6.20
2018-04-11T20:59:27.521Z,6.20
2018-04-11T21:01:55.053Z,6.20
2018-04-11T21:04:22.587Z,6.30
2018-04-11T21:06:50.174Z,6.20
2018-04-11T21:09:18.473Z,6.20
2018-04-11T21:11:46.775Z,6.20
2018-04-11T21:14:14.363Z,6.20
2018-04-11T21:16:41.909Z,6.20
2018-04-11T21:19:09.479Z,6.20
2018-04-11T21:21:37.865Z,6.20
2018-04-11T21:24:06.161Z,6.20
2018-04-11T21:26:33.705Z,6.20
2018-04-11T21:29:01.283Z,6.20
2018-04-11T21:31:29.579Z,6.10
2018-04-11T21:33:57.893Z,6.10
2018-04-11T21:36:26.395Z,6.10
2018-04-11T21:38:53.938Z,6.10
2018-04-11T21:41:22.253Z,6.00
2018-04-11T21:43:50.061Z,6.00
2018-04-11T21:46:17.619Z,6.00
2018-04-11T21:48:45.145Z,5.90
2018-04-11T21:51:13.489Z,5.90
2018-04-11T21:53:41.042Z,5.90
2018-04-11T21:56:08.574Z,5.90
2018-04-11T21:58:36.169Z,5.90
2018-04-11T22:01:03.705Z,5.90
2018-04-11T22:03:32.033Z,5.90
2018-04-11T22:05:59.601Z,5.90
2018-04-11T22:08:27.126Z,5.80
2018-04-11T22:10:54.661Z,5.80
2018-04-11T22:13:22.233Z,5.80
2018-04-11T22:15:49.885Z,5.70
2018-04-11T22:18:17.456Z,5.70
2018-04-11T22:20:45.048Z,5.60
2018-04-11T22:23:12.572Z,5.60
2018-04-11T22:25:40.869Z,5.50
2018-04-11T22:28:09.196Z,5.50
2018-04-11T22:30:36.728Z,5.50
2018-04-11T22:33:05.037Z,5.40
2018-04-11T22:35:32.615Z,5.40
2018-04-11T22:38:00.154Z,5.40
2018-04-11T22:40:27.712Z,5.40
2018-04-11T22:42:56.984Z,5.30
2018-04-11T22:45:24.520Z,5.30
2018-04-11T22:47:52.049Z,5.30
2018-04-11T22:50:19.621Z,5.30
2018-04-11T22:52:47.165Z,5.20
2018-04-11T22:55:14.705Z,5.20
2018-04-11T22:57:42.286Z,5.20
2018-04-11T23:00:09.817Z,5.20
2018-04-11T23:02:37.355Z,5.20
2018-04-11T23:05:05.015Z,5.10
2018-04-11T23:07:32.541Z,5.10
2018-04-11T23:10:00.837Z,5.10
2018-04-11T23:12:29.175Z,5.10
2018-04-11T23:14:57.625Z,5.10
2018-04-11T23:17:26.860Z,5.10
2018-04-11T23:19:54.427Z,5.00
2018-04-11T23:22:21.973Z,5.00
2018-04-11T23:24:50.275Z,5.00
2018-04-11T23:27:17.859Z,5.00
2018-04-11T23:29:45.385Z,5.00
2018-04-11T23:32:12.914Z,5.00
2018-04-11T23:34:40.485Z,5.00
2018-04-11T23:37:08.014Z,5.00
2018-04-11T23:39:36.337Z,4.90
2018-04-11T23:42:03.913Z,5.00
2018-04-11T23:44:31.440Z,5.00
2018-04-11T23:46:59.742Z,4.90
2018-04-11T23:49:27.325Z,4.90
2018-04-11T23:51:54.857Z,4.90
2018-04-11T23:54:22.398Z,4.90
2018-04-11T23:56:50.005Z,4.90
2018-04-11T23:59:18.310Z,4.90
